Time;durP1;ratioP1;P1;durP2;ratioP2;P2;SDS_P1;SDS_P2;PMS_P1;PMS_P2;Temp;Humidity;BMP_temperature;BMP_pressure;BME280_temperature;BME280_humidity;BME280_pressure;Samples;Min_cycle;Max_cycle;Signal;HPM_P1;HPM_P2
2021/05/23 00:00:53;;;;;;;;;;;11.00;91.10;;;;;;4319372;33;20016;-73
2021/05/23 00:03:20;;;;;;;;;;;10.90;91.10;;;;;;4305291;33;20466;-73
2021/05/23 00:05:47;;;;;;;;;;;10.90;91.00;;;;;;4318606;33;20061;-73
2021/05/23 00:08:16;;;;;;;;;;;11.00;91.20;;;;;;4318969;33;20006;-73
2021/05/23 00:10:48;;;;;;;;;;;10.90;91.20;;;;;;4305532;33;19994;-73
2021/05/23 00:13:16;;;;;;;;;;;10.90;91.20;;;;;;4318421;33;20036;-74
2021/05/23 00:15:55;;;;;;;;;;;10.90;91.60;;;;;;4318156;33;20006;-73
2021/05/23 00:18:25;;;;;;;;;;;11.00;91.20;;;;;;4318377;33;20016;-73
2021/05/23 00:20:53;;;;;;;;;;;11.00;91.60;;;;;;4305622;33;20044;-74
2021/05/23 00:23:22;;;;;;;;;;;10.90;91.20;;;;;;4293660;33;19998;-73
2021/05/23 00:25:51;;;;;;;;;;;10.90;91.20;;;;;;4317543;33;20014;-73
2021/05/23 00:28:18;;;;;;;;;;;10.90;91.20;;;;;;4318329;33;20486;-74
2021/05/23 00:30:48;;;;;;;;;;;10.90;91.30;;;;;;4318569;33;20010;-73
2021/05/23 00:33:17;;;;;;;;;;;10.90;91.30;;;;;;4317615;33;20013;-74
2021/05/23 00:35:44;;;;;;;;;;;10.90;91.30;;;;;;4304945;33;20005;-73
2021/05/23 00:38:11;;;;;;;;;;;11.00;91.30;;;;;;4317342;33;20032;-73
2021/05/23 00:40:41;;;;;;;;;;;10.90;91.20;;;;;;4318432;33;20069;-73
2021/05/23 00:43:12;;;;;;;;;;;10.90;91.30;;;;;;4318179;33;20043;-73
2021/05/23 00:45:40;;;;;;;;;;;10.90;91.30;;;;;;4317925;33;20367;-73
2021/05/23 00:48:07;;;;;;;;;;;11.00;91.40;;;;;;4304847;33;20015;-73
2021/05/23 00:50:35;;;;;;;;;;;10.90;91.40;;;;;;4304842;33;20031;-73
2021/05/23 00:53:02;;;;;;;;;;;10.90;91.40;;;;;;4317629;33;20014;-73
2021/05/23 00:55:32;;;;;;;;;;;10.90;91.40;;;;;;4318140;33;20016;-73
2021/05/23 00:58:00;;;;;;;;;;;10.90;91.40;;;;;;4317593;33;20020;-73
2021/05/23 01:00:34;;;;;;;;;;;10.90;91.40;;;;;;4304721;33;19998;-74
2021/05/23 01:03:01;;;;;;;;;;;10.90;91.50;;;;;;4316029;33;21543;-73
2021/05/23 01:05:29;;;;;;;;;;;10.90;91.40;;;;;;4317853;33;20075;-74
2021/05/23 01:07:56;;;;;;;;;;;10.90;91.40;;;;;;4317570;33;20010;-74
2021/05/23 01:10:25;;;;;;;;;;;11.00;91.40;;;;;;4304801;33;20020;-74
2021/05/23 01:12:59;;;;;;;;;;;11.00;91.40;;;;;;4304587;33;20036;-74
2021/05/23 01:15:31;;;;;;;;;;;11.00;91.40;;;;;;4317747;33;20020;-74
2021/05/23 01:18:00;;;;;;;;;;;11.00;91.40;;;;;;4317897;33;20010;-74
2021/05/23 01:20:46;;;;;;;;;;;11.00;91.40;;;;;;4304473;33;20054;-73
2021/05/23 01:23:13;;;;;;;;;;;11.00;91.50;;;;;;4303701;33;23423;-73
2021/05/23 01:25:47;;;;;;;;;;;11.00;91.60;;;;;;4317871;33;20072;-73
2021/05/23 01:28:15;;;;;;;;;;;11.00;91.60;;;;;;4304639;33;20043;-73
2021/05/23 01:30:46;;;;;;;;;;;10.90;91.60;;;;;;4317247;33;20578;-73
2021/05/23 01:33:15;;;;;;;;;;;11.00;91.60;;;;;;4317665;33;20428;-73
2021/05/23 01:35:50;;;;;;;;;;;11.00;91.70;;;;;;4304422;33;20010;-73
2021/05/23 01:38:18;;;;;;;;;;;11.00;91.70;;;;;;4317220;33;20020;-73
2021/05/23 01:40:49;;;;;;;;;;;10.90;91.70;;;;;;4315942;33;20585;-73
2021/05/23 01:43:18;;;;;;;;;;;11.00;91.70;;;;;;4304362;33;20010;-73
2021/05/23 01:45:46;;;;;;;;;;;11.00;91.70;;;;;;4317189;33;20033;-73
2021/05/23 01:48:13;;;;;;;;;;;11.00;91.70;;;;;;4317101;33;20403;-73
2021/05/23 01:50:40;;;;;;;;;;;11.00;91.70;;;;;;4316048;33;20380;-73
2021/05/23 01:53:10;;;;;;;;;;;11.00;91.70;;;;;;4317171;33;20024;-73
2021/05/23 01:55:39;;;;;;;;;;;11.00;91.70;;;;;;4317469;33;20425;-73
2021/05/23 01:58:07;;;;;;;;;;;11.00;91.90;;;;;;4317148;33;20039;-73
2021/05/23 02:00:41;;;;;;;;;;;11.00;91.80;;;;;;4316152;33;20005;-73
2021/05/23 02:03:09;;;;;;;;;;;11.00;91.90;;;;;;4317159;33;20075;-73
2021/05/23 02:05:44;;;;;;;;;;;11.00;91.90;;;;;;4317512;33;20006;-73
2021/05/23 02:08:15;;;;;;;;;;;11.00;92.00;;;;;;4303757;33;20013;-73
2021/05/23 02:10:52;;;;;;;;;;;11.00;92.00;;;;;;4291992;33;20002;-73
2021/05/23 02:13:19;;;;;;;;;;;10.90;92.00;;;;;;4304152;33;20129;-73
2021/05/23 02:15:49;;;;;;;;;;;11.00;92.10;;;;;;4303972;33;20009;-73
2021/05/23 02:18:16;;;;;;;;;;;10.90;92.10;;;;;;4303930;33;20002;-73
2021/05/23 02:20:46;;;;;;;;;;;10.90;92.10;;;;;;4317172;33;20014;-73
2021/05/23 02:23:15;;;;;;;;;;;10.90;92.10;;;;;;4303813;33;20022;-73
2021/05/23 02:25:42;;;;;;;;;;;10.90;92.30;;;;;;4317164;33;20010;-73
2021/05/23 02:28:10;;;;;;;;;;;10.90;92.30;;;;;;4317226;33;20020;-73
2021/05/23 02:30:39;;;;;;;;;;;10.80;92.30;;;;;;4317135;33;20019;-73
2021/05/23 02:33:09;;;;;;;;;;;10.90;92.30;;;;;;4317111;33;20362;-72
2021/05/23 02:35:40;;;;;;;;;;;10.80;92.40;;;;;;4304177;33;20368;-73
2021/05/23 02:38:11;;;;;;;;;;;10.80;92.40;;;;;;4304007;33;19998;-73
2021/05/23 02:40:38;;;;;;;;;;;10.70;92.50;;;;;;4305102;33;20217;-73
2021/05/23 02:43:09;;;;;;;;;;;10.70;92.50;;;;;;4306736;33;20407;-73
2021/05/23 02:45:37;;;;;;;;;;;10.60;92.60;;;;;;4320119;33;20010;-73
2021/05/23 02:48:07;;;;;;;;;;;10.60;92.50;;;;;;4318465;33;20038;-73
2021/05/23 02:50:38;;;;;;;;;;;10.60;92.50;;;;;;4320310;33;20006;-73
2021/05/23 02:53:06;;;;;;;;;;;10.60;92.50;;;;;;4319556;33;20005;-73
2021/05/23 02:55:34;;;;;;;;;;;10.50;92.50;;;;;;4319660;33;20019;-73
2021/05/23 02:58:06;;;;;;;;;;;10.50;92.40;;;;;;4306713;33;20012;-73
2021/05/23 03:00:33;;;;;;;;;;;10.60;92.30;;;;;;4306388;33;20411;-73
2021/05/23 03:03:02;;;;;;;;;;;10.60;92.30;;;;;;4305876;33;20006;-73
2021/05/23 03:05:30;;;;;;;;;;;10.50;92.30;;;;;;4306131;33;20047;-73
2021/05/23 03:08:02;;;;;;;;;;;10.50;92.30;;;;;;4318081;33;20002;-73
2021/05/23 03:10:31;;;;;;;;;;;10.50;92.40;;;;;;4319731;33;19998;-73
2021/05/23 03:12:59;;;;;;;;;;;10.50;92.30;;;;;;4306514;33;20009;-73
2021/05/23 03:15:32;;;;;;;;;;;10.40;92.30;;;;;;4319174;33;20006;-73
2021/05/23 03:17:59;;;;;;;;;;;10.50;92.20;;;;;;4306235;33;20145;-73
2021/05/23 03:20:30;;;;;;;;;;;10.50;92.20;;;;;;4294104;33;20010;-73
2021/05/23 03:22:58;;;;;;;;;;;10.50;92.20;;;;;;4306379;33;20018;-73
2021/05/23 03:25:28;;;;;;;;;;;10.50;92.20;;;;;;4306314;33;20069;-73
2021/05/23 03:28:01;;;;;;;;;;;10.50;92.20;;;;;;4319493;33;20062;-73
2021/05/23 03:30:49;;;;;;;;;;;10.50;92.20;;;;;;4306163;33;20018;-73
2021/05/23 03:33:22;;;;;;;;;;;10.50;92.20;;;;;;4306390;33;20080;-73
2021/05/23 03:35:54;;;;;;;;;;;10.50;92.20;;;;;;4306044;33;20025;-74
2021/05/23 03:38:26;;;;;;;;;;;10.60;92.20;;;;;;4306530;33;20019;-73
2021/05/23 03:40:59;;;;;;;;;;;10.60;92.10;;;;;;4318617;33;20017;-73
2021/05/23 03:43:29;;;;;;;;;;;10.60;92.10;;;;;;4318839;33;21458;-73
2021/05/23 03:46:01;;;;;;;;;;;10.60;92.20;;;;;;4317834;33;20006;-73
2021/05/23 03:48:33;;;;;;;;;;;10.60;92.30;;;;;;4319193;33;20001;-73
2021/05/23 03:51:03;;;;;;;;;;;10.60;92.30;;;;;;4318771;33;20028;-73
2021/05/23 03:53:32;;;;;;;;;;;10.50;92.30;;;;;;4318243;33;20502;-73
2021/05/23 03:56:04;;;;;;;;;;;10.60;92.20;;;;;;4305137;33;20014;-73
2021/05/23 03:58:31;;;;;;;;;;;10.60;92.10;;;;;;4305735;33;20024;-73
2021/05/23 04:01:00;;;;;;;;;;;10.60;92.10;;;;;;4318543;33;20363;-73
2021/05/23 04:03:32;;;;;;;;;;;10.60;92.10;;;;;;4302592;33;20359;-73
2021/05/23 04:06:06;;;;;;;;;;;10.50;92.20;;;;;;4304183;33;20415;-73
2021/05/23 04:08:33;;;;;;;;;;;10.50;92.20;;;;;;4304292;33;20013;-73
2021/05/23 04:11:05;;;;;;;;;;;10.50;92.20;;;;;;4291274;33;20073;-73
2021/05/23 04:13:37;;;;;;;;;;;10.40;92.20;;;;;;4303120;33;20430;-74
2021/05/23 04:16:09;;;;;;;;;;;10.50;92.10;;;;;;4302971;33;20427;-73
2021/05/23 04:18:39;;;;;;;;;;;10.40;92.10;;;;;;4304175;33;20438;-73
2021/05/23 04:21:09;;;;;;;;;;;10.50;92.10;;;;;;4302926;33;20052;-73
2021/05/23 04:23:37;;;;;;;;;;;10.40;92.50;;;;;;4304193;33;20022;-73
2021/05/23 04:26:05;;;;;;;;;;;10.40;92.10;;;;;;4304019;33;20010;-73
2021/05/23 04:28:35;;;;;;;;;;;10.40;92.10;;;;;;4290496;33;20010;-73
2021/05/23 04:31:08;;;;;;;;;;;10.40;92.10;;;;;;4290885;33;22649;-73
2021/05/23 04:33:40;;;;;;;;;;;10.40;92.10;;;;;;4303525;33;22681;-73
2021/05/23 04:36:12;;;;;;;;;;;10.40;92.10;;;;;;4302515;33;20329;-73
2021/05/23 04:38:48;;;;;;;;;;;10.30;92.20;;;;;;4303178;33;20058;-73
2021/05/23 04:41:17;;;;;;;;;;;10.30;92.10;;;;;;4303842;33;20420;-73
2021/05/23 04:43:49;;;;;;;;;;;10.40;92.10;;;;;;4302388;33;19998;-73
2021/05/23 04:46:21;;;;;;;;;;;10.30;92.10;;;;;;4303804;33;20011;-73
2021/05/23 04:48:54;;;;;;;;;;;10.30;92.20;;;;;;4303909;33;20007;-73
2021/05/23 04:51:26;;;;;;;;;;;10.30;92.20;;;;;;4302521;33;19998;-73
2021/05/23 04:53:59;;;;;;;;;;;10.30;92.20;;;;;;4302144;33;20370;-73
2021/05/23 04:56:28;;;;;;;;;;;10.30;92.20;;;;;;4290340;33;20412;-73
2021/05/23 04:58:56;;;;;;;;;;;10.30;92.10;;;;;;4303952;33;20024;-73
2021/05/23 05:01:26;;;;;;;;;;;10.30;92.10;;;;;;4290866;33;20405;-74
2021/05/23 05:03:56;;;;;;;;;;;10.30;92.00;;;;;;4315892;33;20070;-73
2021/05/23 05:06:26;;;;;;;;;;;10.30;92.00;;;;;;4292552;33;19999;-74
2021/05/23 05:08:56;;;;;;;;;;;10.30;91.90;;;;;;4318026;33;20018;-74
2021/05/23 05:11:29;;;;;;;;;;;10.40;91.90;;;;;;4318160;33;20053;-73
2021/05/23 05:13:56;;;;;;;;;;;10.30;91.90;;;;;;4318007;33;20433;-74
2021/05/23 05:16:24;;;;;;;;;;;10.30;91.90;;;;;;4316237;33;19998;-73
2021/05/23 05:18:53;;;;;;;;;;;10.30;91.90;;;;;;4317965;33;20006;-74
2021/05/23 05:21:25;;;;;;;;;;;10.30;91.90;;;;;;4304074;33;20914;-74
2021/05/23 05:23:55;;;;;;;;;;;10.30;91.90;;;;;;4316730;33;20018;-73
2021/05/23 05:26:22;;;;;;;;;;;10.30;91.80;;;;;;4317486;33;20002;-73
2021/05/23 05:28:49;;;;;;;;;;;10.30;91.80;;;;;;4304302;33;20006;-73
2021/05/23 05:31:17;;;;;;;;;;;10.30;91.90;;;;;;4304013;33;19998;-73
2021/05/23 05:33:47;;;;;;;;;;;10.30;91.90;;;;;;4304077;33;20453;-73
2021/05/23 05:36:14;;;;;;;;;;;10.30;92.00;;;;;;4304213;33;20014;-73
2021/05/23 05:38:44;;;;;;;;;;;10.30;92.00;;;;;;4315954;33;20061;-74
2021/05/23 05:41:11;;;;;;;;;;;10.30;91.90;;;;;;4317154;33;20100;-74
2021/05/23 05:43:38;;;;;;;;;;;10.30;91.90;;;;;;4316149;33;20002;-73
2021/05/23 05:46:05;;;;;;;;;;;10.30;92.00;;;;;;4317305;33;20028;-73
2021/05/23 05:48:32;;;;;;;;;;;10.30;92.00;;;;;;4304253;33;20022;-74
2021/05/23 05:51:00;;;;;;;;;;;10.20;92.00;;;;;;4317378;33;20025;-74
2021/05/23 05:53:28;;;;;;;;;;;10.20;92.00;;;;;;4304161;33;20001;-74
2021/05/23 05:55:55;;;;;;;;;;;10.20;92.10;;;;;;4317393;33;19998;-74
2021/05/23 05:58:24;;;;;;;;;;;10.20;92.10;;;;;;4317008;33;20048;-74
2021/05/23 06:00:57;;;;;;;;;;;10.20;92.10;;;;;;4316983;33;20069;-74
2021/05/23 06:03:24;;;;;;;;;;;10.20;92.10;;;;;;4303667;33;20005;-74
2021/05/23 06:05:53;;;;;;;;;;;10.20;92.10;;;;;;4304150;33;20069;-74
2021/05/23 06:08:23;;;;;;;;;;;10.20;92.20;;;;;;4317235;33;20012;-73
2021/05/23 06:10:54;;;;;;;;;;;10.20;92.20;;;;;;4304118;33;20003;-73
2021/05/23 06:13:23;;;;;;;;;;;10.10;92.20;;;;;;4316077;33;20583;-73
2021/05/23 06:15:53;;;;;;;;;;;10.20;92.30;;;;;;4317217;33;20451;-73
2021/05/23 06:18:24;;;;;;;;;;;10.20;92.30;;;;;;4317136;33;20009;-73
2021/05/23 06:20:57;;;;;;;;;;;10.20;92.10;;;;;;4303987;33;20050;-73
2021/05/23 06:23:24;;;;;;;;;;;10.20;92.00;;;;;;4304264;33;20044;-73
2021/05/23 06:25:51;;;;;;;;;;;10.30;92.00;;;;;;4316416;33;20065;-73
2021/05/23 06:28:23;;;;;;;;;;;10.30;91.90;;;;;;4316934;33;20075;-73
2021/05/23 06:30:53;;;;;;;;;;;10.20;92.00;;;;;;4316878;33;20017;-73
2021/05/23 06:33:20;;;;;;;;;;;10.30;92.10;;;;;;4303905;33;19990;-73
2021/05/23 06:35:50;;;;;;;;;;;10.30;92.10;;;;;;4316848;33;20009;-73
2021/05/23 06:38:17;;;;;;;;;;;10.30;92.00;;;;;;4316312;33;20014;-73
2021/05/23 06:40:49;;;;;;;;;;;10.30;92.00;;;;;;4317050;33;20022;-73
2021/05/23 06:43:21;;;;;;;;;;;10.30;91.90;;;;;;4317155;33;20069;-73
2021/05/23 06:45:51;;;;;;;;;;;10.30;91.90;;;;;;4317052;33;20009;-74
2021/05/23 06:48:18;;;;;;;;;;;10.30;92.00;;;;;;4303827;33;20350;-74
2021/05/23 06:50:47;;;;;;;;;;;10.30;91.80;;;;;;4316514;33;20002;-75
2021/05/23 06:53:15;;;;;;;;;;;10.30;91.80;;;;;;4303516;33;20008;-75
2021/05/23 06:55:44;;;;;;;;;;;10.30;91.70;;;;;;4317072;33;20522;-75
2021/05/23 06:58:15;;;;;;;;;;;10.40;91.70;;;;;;4317071;33;20061;-75
2021/05/23 07:00:42;;;;;;;;;;;10.30;91.50;;;;;;4315749;33;20493;-75
2021/05/23 07:03:11;;;;;;;;;;;10.40;91.70;;;;;;4316524;33;20148;-74
2021/05/23 07:05:38;;;;;;;;;;;10.40;91.70;;;;;;4303406;33;20414;-75
2021/05/23 07:08:06;;;;;;;;;;;10.50;91.60;;;;;;4303261;33;20443;-75
2021/05/23 07:10:33;;;;;;;;;;;10.40;91.50;;;;;;4304007;33;20355;-75
2021/05/23 07:13:05;;;;;;;;;;;10.50;91.60;;;;;;4303601;33;20402;-75
2021/05/23 07:15:34;;;;;;;;;;;10.50;91.40;;;;;;4316665;33;20071;-75
2021/05/23 07:18:05;;;;;;;;;;;10.50;91.50;;;;;;4303139;33;20012;-75
2021/05/23 07:20:34;;;;;;;;;;;10.50;91.40;;;;;;4315839;33;19999;-74
2021/05/23 07:23:02;;;;;;;;;;;10.50;91.40;;;;;;4316865;33;20084;-75
2021/05/23 07:25:33;;;;;;;;;;;10.50;91.40;;;;;;4315734;33;20018;-75
2021/05/23 07:28:03;;;;;;;;;;;10.50;91.30;;;;;;4318189;33;20075;-75
2021/05/23 07:30:30;;;;;;;;;;;10.50;91.30;;;;;;4319044;33;20404;-75
2021/05/23 07:33:02;;;;;;;;;;;10.60;91.20;;;;;;4318437;33;20407;-74
2021/05/23 07:35:29;;;;;;;;;;;10.50;91.10;;;;;;4305918;33;20009;-74
2021/05/23 07:37:56;;;;;;;;;;;10.60;91.30;;;;;;4319068;33;20010;-75
2021/05/23 07:40:26;;;;;;;;;;;10.60;91.10;;;;;;4319155;33;20338;-75
2021/05/23 07:42:53;;;;;;;;;;;10.60;91.00;;;;;;4318327;33;20018;-74
2021/05/23 07:45:23;;;;;;;;;;;10.70;90.70;;;;;;4319247;33;20020;-75
2021/05/23 07:47:53;;;;;;;;;;;10.70;90.80;;;;;;4317574;33;20006;-75
2021/05/23 07:50:20;;;;;;;;;;;10.70;90.60;;;;;;4305650;33;20001;-75
2021/05/23 07:52:47;;;;;;;;;;;10.70;90.60;;;;;;4318980;33;20070;-75
2021/05/23 07:55:14;;;;;;;;;;;10.70;90.50;;;;;;4319035;33;20007;-74
2021/05/23 07:57:45;;;;;;;;;;;10.70;90.20;;;;;;4305835;33;20016;-75
2021/05/23 08:00:13;;;;;;;;;;;10.70;90.50;;;;;;4304848;33;25765;-75
2021/05/23 08:02:41;;;;;;;;;;;10.70;90.30;;;;;;4305378;33;20024;-75
2021/05/23 08:05:11;;;;;;;;;;;10.80;90.20;;;;;;4318801;33;20005;-75
2021/05/23 08:07:38;;;;;;;;;;;10.70;90.10;;;;;;4305518;33;20006;-75
2021/05/23 08:10:07;;;;;;;;;;;10.70;90.00;;;;;;4318436;33;20018;-74
2021/05/23 08:12:34;;;;;;;;;;;10.80;90.00;;;;;;4318500;33;20005;-74
2021/05/23 08:15:04;;;;;;;;;;;10.70;89.10;;;;;;4318576;33;20020;-75
2021/05/23 08:17:31;;;;;;;;;;;10.70;89.20;;;;;;4318182;33;20017;-75
2021/05/23 08:19:59;;;;;;;;;;;10.70;89.30;;;;;;4305280;33;20016;-75
2021/05/23 08:22:26;;;;;;;;;;;10.70;89.40;;;;;;4305235;33;19998;-75
2021/05/23 08:24:53;;;;;;;;;;;10.70;89.70;;;;;;4305667;33;20013;-75
2021/05/23 08:27:23;;;;;;;;;;;10.80;89.20;;;;;;4305100;33;20503;-75
2021/05/23 08:29:51;;;;;;;;;;;10.70;89.10;;;;;;4318242;33;20388;-75
2021/05/23 08:32:23;;;;;;;;;;;10.80;89.00;;;;;;4293257;33;20016;-75
2021/05/23 08:34:50;;;;;;;;;;;10.70;89.30;;;;;;4318213;33;20014;-75
2021/05/23 08:37:18;;;;;;;;;;;10.80;89.10;;;;;;4318187;33;20016;-75
2021/05/23 08:39:45;;;;;;;;;;;10.70;88.70;;;;;;4317949;33;20066;-75
2021/05/23 08:42:13;;;;;;;;;;;10.70;88.30;;;;;;4317851;33;20057;-75
2021/05/23 08:44:41;;;;;;;;;;;10.70;88.10;;;;;;4304954;33;20047;-75
2021/05/23 08:47:11;;;;;;;;;;;10.70;88.40;;;;;;4317918;33;20006;-75
2021/05/23 08:49:38;;;;;;;;;;;10.70;88.00;;;;;;4318083;33;20019;-75
2021/05/23 08:52:11;;;;;;;;;;;10.70;87.60;;;;;;4317964;33;20057;-75
2021/05/23 08:54:43;;;;;;;;;;;10.80;87.70;;;;;;4317944;33;20014;-74
2021/05/23 08:57:10;;;;;;;;;;;10.80;87.60;;;;;;4316890;33;20082;-74
2021/05/23 08:59:37;;;;;;;;;;;10.80;87.50;;;;;;4317622;33;20013;-75
2021/05/23 09:02:08;;;;;;;;;;;10.90;87.40;;;;;;4317799;33;20010;-74
2021/05/23 09:04:47;;;;;;;;;;;10.90;87.30;;;;;;4318031;33;20058;-74
2021/05/23 09:07:17;;;;;;;;;;;10.90;87.10;;;;;;4304941;33;20019;-75
2021/05/23 09:09:48;;;;;;;;;;;10.90;87.00;;;;;;4304324;33;20028;-75
2021/05/23 09:12:19;;;;;;;;;;;11.00;87.20;;;;;;4317869;33;20005;-74
2021/05/23 09:14:49;;;;;;;;;;;11.00;86.70;;;;;;4317252;33;23047;-75
2021/05/23 09:17:23;;;;;;;;;;;10.90;86.60;;;;;;4318159;33;20006;-74
2021/05/23 09:19:51;;;;;;;;;;;11.00;86.90;;;;;;4304235;33;20005;-74
2021/05/23 09:22:23;;;;;;;;;;;11.00;86.20;;;;;;4305229;33;20032;-74
2021/05/23 09:24:50;;;;;;;;;;;11.00;85.80;;;;;;4317815;33;20006;-75
2021/05/23 09:27:17;;;;;;;;;;;11.00;86.30;;;;;;4317779;33;20010;-75
2021/05/23 09:29:44;;;;;;;;;;;11.00;86.10;;;;;;4304600;33;20012;-75
2021/05/23 09:32:21;;;;;;;;;;;11.00;86.20;;;;;;4304603;33;20016;-74
2021/05/23 09:34:49;;;;;;;;;;;11.00;85.80;;;;;;4304445;33;20002;-75
2021/05/23 09:37:19;;;;;;;;;;;11.00;85.20;;;;;;4317736;33;20058;-75
2021/05/23 09:39:46;;;;;;;;;;;11.00;85.30;;;;;;4317050;33;20021;-75
2021/05/23 09:42:17;;;;;;;;;;;11.00;85.30;;;;;;4317432;33;20399;-75
2021/05/23 09:44:45;;;;;;;;;;;11.10;85.00;;;;;;4317371;33;20025;-75
2021/05/23 09:47:13;;;;;;;;;;;11.10;85.40;;;;;;4317332;33;20466;-75
2021/05/23 09:49:43;;;;;;;;;;;11.10;84.80;;;;;;4316190;33;20417;-75
2021/05/23 09:52:12;;;;;;;;;;;11.10;85.20;;;;;;4316264;33;20022;-75
2021/05/23 09:54:43;;;;;;;;;;;11.20;85.30;;;;;;4317132;33;20013;-75
2021/05/23 09:57:14;;;;;;;;;;;11.30;85.20;;;;;;4316819;33;20016;-75
2021/05/23 09:59:43;;;;;;;;;;;11.30;84.40;;;;;;4303420;33;25358;-75
2021/05/23 10:02:13;;;;;;;;;;;11.30;84.80;;;;;;4316944;33;20010;-74
2021/05/23 10:04:43;;;;;;;;;;;11.30;84.00;;;;;;4316839;33;23646;-75
2021/05/23 10:07:16;;;;;;;;;;;11.30;84.20;;;;;;4317044;33;20008;-75
2021/05/23 10:09:43;;;;;;;;;;;11.40;84.20;;;;;;4317469;33;20068;-74
2021/05/23 10:12:14;;;;;;;;;;;11.40;84.60;;;;;;4291789;33;20002;-75
2021/05/23 10:14:44;;;;;;;;;;;11.40;84.50;;;;;;4316376;33;20014;-75
2021/05/23 10:17:13;;;;;;;;;;;11.50;83.40;;;;;;4316115;33;20023;-75
2021/05/23 10:19:40;;;;;;;;;;;11.50;84.10;;;;;;4316334;33;20010;-76
2021/05/23 10:22:10;;;;;;;;;;;11.60;83.80;;;;;;4292037;33;20016;-75
2021/05/23 10:24:46;;;;;;;;;;;11.60;83.80;;;;;;4317207;33;20002;-75
2021/05/23 10:27:14;;;;;;;;;;;11.60;83.30;;;;;;4316987;33;20065;-75
2021/05/23 10:29:47;;;;;;;;;;;11.60;83.90;;;;;;4317368;33;20006;-75
2021/05/23 10:32:37;;;;;;;;;;;11.60;83.90;;;;;;4292144;33;20016;-75
2021/05/23 10:35:15;;;;;;;;;;;11.60;83.20;;;;;;4316446;33;28831;-73
2021/05/23 10:37:44;;;;;;;;;;;11.60;83.30;;;;;;4303858;33;20065;-75
2021/05/23 10:40:31;;;;;;;;;;;11.60;82.90;;;;;;4317015;33;20362;-75
2021/05/23 10:43:01;;;;;;;;;;;11.70;82.30;;;;;;4316897;33;20053;-74
2021/05/23 10:45:30;;;;;;;;;;;11.80;82.00;;;;;;4316125;33;20010;-75
2021/05/23 10:47:58;;;;;;;;;;;11.80;80.90;;;;;;4303670;33;20017;-75
2021/05/23 10:50:34;;;;;;;;;;;11.80;81.70;;;;;;4316645;33;20072;-74
2021/05/23 10:53:02;;;;;;;;;;;11.90;80.50;;;;;;4317140;33;20009;-74
2021/05/23 10:55:29;;;;;;;;;;;11.90;81.60;;;;;;4303133;33;20018;-74
2021/05/23 10:57:57;;;;;;;;;;;12.00;82.10;;;;;;4304089;33;20018;-74
2021/05/23 11:00:28;;;;;;;;;;;12.10;82.50;;;;;;4303814;33;19998;-74
2021/05/23 11:03:13;;;;;;;;;;;12.20;81.60;;;;;;4306324;33;20256;-74
2021/05/23 11:05:41;;;;;;;;;;;12.20;81.30;;;;;;4319445;33;20024;-75
2021/05/23 11:08:09;;;;;;;;;;;12.20;80.90;;;;;;4294255;33;19998;-74
2021/05/23 11:10:39;;;;;;;;;;;12.20;80.90;;;;;;4318710;33;20009;-74
2021/05/23 11:13:10;;;;;;;;;;;12.20;80.90;;;;;;4318323;33;20012;-74
2021/05/23 11:15:47;;;;;;;;;;;12.20;81.10;;;;;;4306588;33;20008;-74
2021/05/23 11:18:25;;;;;;;;;;;12.20;79.60;;;;;;4305922;33;20010;-74
2021/05/23 11:20:55;;;;;;;;;;;12.20;80.60;;;;;;4319631;33;20058;-74
2021/05/23 11:23:25;;;;;;;;;;;12.30;80.70;;;;;;4318346;33;20019;-74
2021/05/23 11:26:06;;;;;;;;;;;12.30;80.70;;;;;;4305538;33;20321;-74
2021/05/23 11:28:33;;;;;;;;;;;12.30;80.30;;;;;;4317549;33;28751;-74
2021/05/23 11:31:00;;;;;;;;;;;12.30;80.30;;;;;;4318965;33;20027;-74
2021/05/23 11:33:33;;;;;;;;;;;12.40;80.70;;;;;;4318230;33;20061;-74
2021/05/23 11:36:00;;;;;;;;;;;12.50;81.10;;;;;;4318441;33;20012;-74
2021/05/23 11:38:36;;;;;;;;;;;12.50;81.00;;;;;;4318328;33;20374;-74
2021/05/23 11:41:04;;;;;;;;;;;12.50;80.70;;;;;;4318867;33;20061;-74
2021/05/23 11:43:34;;;;;;;;;;;12.60;80.90;;;;;;4306062;33;20010;-74
2021/05/23 11:46:02;;;;;;;;;;;12.70;80.20;;;;;;4318839;33;20438;-74
2021/05/23 11:48:33;;;;;;;;;;;12.80;80.60;;;;;;4318806;33;20021;-74
2021/05/23 11:51:01;;;;;;;;;;;12.80;80.20;;;;;;4319278;33;20010;-74
2021/05/23 11:53:45;;;;;;;;;;;12.80;80.00;;;;;;4318340;33;20445;-74
2021/05/23 11:56:16;;;;;;;;;;;12.90;80.30;;;;;;4318905;33;20418;-74
2021/05/23 11:58:49;;;;;;;;;;;12.90;79.90;;;;;;4317444;33;20569;-74
2021/05/23 12:01:21;;;;;;;;;;;12.90;78.50;;;;;;4319027;33;20020;-74
2021/05/23 12:04:04;;;;;;;;;;;13.00;79.10;;;;;;4318410;33;20014;-74
2021/05/23 12:06:51;;;;;;;;;;;13.00;79.40;;;;;;4305551;33;20004;-74
2021/05/23 12:09:22;;;;;;;;;;;13.00;79.40;;;;;;4318280;33;29789;-74
2021/05/23 12:11:53;;;;;;;;;;;13.00;79.30;;;;;;4305539;33;20415;-74
2021/05/23 12:14:25;;;;;;;;;;;13.00;79.50;;;;;;4318305;33;20014;-74
2021/05/23 12:17:01;;;;;;;;;;;12.90;79.50;;;;;;4305616;33;20035;-74
2021/05/23 12:19:59;;;;;;;;;;;12.90;79.20;;;;;;4318186;33;20010;-74
2021/05/23 12:22:29;;;;;;;;;;;12.90;79.60;;;;;;4317999;33;23493;-74
2021/05/23 12:24:58;;;;;;;;;;;12.90;79.10;;;;;;4318773;33;20049;-74
2021/05/23 12:27:30;;;;;;;;;;;13.00;79.50;;;;;;4305472;33;20049;-74
2021/05/23 12:30:05;;;;;;;;;;;12.90;78.60;;;;;;4293182;33;20002;-74
2021/05/23 12:32:39;;;;;;;;;;;12.90;79.10;;;;;;4318035;33;20045;-74
2021/05/23 12:35:14;;;;;;;;;;;12.90;79.10;;;;;;4318062;33;21340;-74
2021/05/23 12:37:46;;;;;;;;;;;12.90;78.90;;;;;;4318648;33;20404;-74
2021/05/23 12:40:23;;;;;;;;;;;12.90;78.60;;;;;;4318492;33;20065;-74
2021/05/23 12:43:07;;;;;;;;;;;12.80;79.20;;;;;;4305132;33;20006;-74
2021/05/23 12:45:34;;;;;;;;;;;12.80;79.10;;;;;;4305013;33;20065;-75
2021/05/23 12:48:05;;;;;;;;;;;12.80;79.10;;;;;;4317094;33;20006;-74
2021/05/23 12:50:44;;;;;;;;;;;12.90;79.00;;;;;;4305126;33;20014;-74
2021/05/23 12:53:34;;;;;;;;;;;12.90;78.70;;;;;;4304564;33;20002;-75
2021/05/23 12:56:08;;;;;;;;;;;12.80;79.30;;;;;;4304526;33;23388;-74
2021/05/23 12:58:44;;;;;;;;;;;12.90;79.40;;;;;;4304257;33;29367;-74
2021/05/23 13:01:21;;;;;;;;;;;12.90;79.30;;;;;;4317391;33;23817;-74
2021/05/23 13:03:49;;;;;;;;;;;12.90;78.70;;;;;;4304336;33;22844;-74
2021/05/23 13:06:17;;;;;;;;;;;12.90;78.80;;;;;;4304523;33;19997;-74
2021/05/23 13:08:44;;;;;;;;;;;12.90;79.10;;;;;;4317678;33;20073;-75
2021/05/23 13:11:20;;;;;;;;;;;12.90;78.20;;;;;;4318053;33;20342;-74
2021/05/23 13:13:47;;;;;;;;;;;13.00;79.10;;;;;;4317236;33;20025;-74
2021/05/23 13:16:30;;;;;;;;;;;13.00;78.90;;;;;;4317967;33;20010;-74
2021/05/23 13:18:57;;;;;;;;;;;13.10;78.90;;;;;;4316888;33;20387;-74
2021/05/23 13:21:28;;;;;;;;;;;13.10;79.10;;;;;;4317574;33;20073;-74
2021/05/23 13:23:58;;;;;;;;;;;13.20;78.60;;;;;;4317563;33;20001;-74
2021/05/23 13:26:25;;;;;;;;;;;13.20;78.60;;;;;;4303927;33;20036;-74
2021/05/23 13:28:52;;;;;;;;;;;13.30;78.80;;;;;;4317639;33;20012;-74
2021/05/23 13:31:19;;;;;;;;;;;13.40;78.60;;;;;;4317847;33;20020;-74
2021/05/23 13:33:49;;;;;;;;;;;13.40;78.00;;;;;;4292123;33;20321;-74
2021/05/23 13:36:17;;;;;;;;;;;13.40;77.90;;;;;;4303412;33;22729;-75
2021/05/23 13:38:47;;;;;;;;;;;13.40;78.30;;;;;;4316201;33;20076;-74
2021/05/23 13:41:14;;;;;;;;;;;13.30;78.00;;;;;;4317269;33;20075;-75
2021/05/23 13:43:41;;;;;;;;;;;13.40;79.00;;;;;;4303994;33;20020;-74
2021/05/23 13:46:08;;;;;;;;;;;13.30;78.20;;;;;;4317597;33;20328;-75
2021/05/23 13:48:41;;;;;;;;;;;13.30;78.10;;;;;;4316495;33;20020;-75
2021/05/23 13:51:08;;;;;;;;;;;13.40;78.20;;;;;;4303953;33;20010;-75
2021/05/23 13:53:35;;;;;;;;;;;13.30;78.50;;;;;;4316945;33;20005;-75
2021/05/23 13:56:02;;;;;;;;;;;13.40;78.80;;;;;;4316394;33;20010;-74
2021/05/23 13:58:31;;;;;;;;;;;13.40;78.80;;;;;;4304141;33;20004;-74
2021/05/23 14:00:58;;;;;;;;;;;13.50;78.90;;;;;;4317007;33;20407;-75
2021/05/23 14:03:25;;;;;;;;;;;13.50;78.90;;;;;;4315700;33;20112;-74
2021/05/23 14:05:53;;;;;;;;;;;13.50;78.40;;;;;;4317000;33;20017;-75
2021/05/23 14:08:21;;;;;;;;;;;13.60;78.10;;;;;;4303638;33;19998;-75
2021/05/23 14:10:52;;;;;;;;;;;13.60;78.30;;;;;;4317176;33;20010;-75
2021/05/23 14:13:23;;;;;;;;;;;13.60;77.80;;;;;;4304186;33;20017;-75
2021/05/23 14:15:50;;;;;;;;;;;13.60;77.90;;;;;;4304228;33;20019;-75
2021/05/23 14:18:20;;;;;;;;;;;13.60;77.90;;;;;;4303577;33;20419;-75
2021/05/23 14:20:50;;;;;;;;;;;13.60;77.70;;;;;;4303875;33;20015;-75
2021/05/23 14:23:20;;;;;;;;;;;13.60;77.80;;;;;;4316873;33;20013;-75
2021/05/23 14:25:47;;;;;;;;;;;13.60;77.80;;;;;;4317168;33;20020;-75
2021/05/23 14:28:17;;;;;;;;;;;13.60;77.70;;;;;;4316975;33;20079;-75
2021/05/23 14:30:44;;;;;;;;;;;13.60;77.70;;;;;;4316013;33;20069;-75
2021/05/23 14:33:15;;;;;;;;;;;13.70;78.10;;;;;;4303968;33;20448;-75